sensor_id;sensor_type;location;lat;lon;timestamp;P1;durP1;ratioP1;P2;durP2;ratioP2
63965;SDS011;50151;52.030;5.350;2023-04-23T00:01:57;45.22;;;27.10;;
63965;SDS011;50151;52.030;5.350;2023-04-23T00:04:25;45.35;;;26.70;;
63965;SDS011;50151;52.030;5.350;2023-04-23T00:06:54;48.85;;;27.60;;
63965;SDS011;50151;52.030;5.350;2023-04-23T00:09:21;46.15;;;28.00;;
63965;SDS011;50151;52.030;5.350;2023-04-23T00:11:49;43.63;;;25.90;;
63965;SDS011;50151;52.030;5.350;2023-04-23T00:14:16;41.53;;;25.88;;
63965;SDS011;50151;52.030;5.350;2023-04-23T00:16:42;46.22;;;27.35;;
63965;SDS011;50151;52.030;5.350;2023-04-23T00:19:10;49.15;;;28.08;;
63965;SDS011;50151;52.030;5.350;2023-04-23T00:21:36;48.05;;;28.05;;
63965;SDS011;50151;52.030;5.350;2023-04-23T00:24:03;44.10;;;27.08;;
63965;SDS011;50151;52.030;5.350;2023-04-23T00:26:30;49.63;;;28.38;;
63965;SDS011;50151;52.030;5.350;2023-04-23T00:28:57;49.08;;;27.85;;
63965;SDS011;50151;52.030;5.350;2023-04-23T00:31:23;46.28;;;27.52;;
63965;SDS011;50151;52.030;5.350;2023-04-23T00:33:52;47.33;;;27.70;;
63965;SDS011;50151;52.030;5.350;2023-04-23T00:36:19;46.38;;;27.70;;
63965;SDS011;50151;52.030;5.350;2023-04-23T00:38:45;43.80;;;27.00;;
63965;SDS011;50151;52.030;5.350;2023-04-23T00:41:13;52.30;;;28.60;;
63965;SDS011;50151;52.030;5.350;2023-04-23T00:43:40;52.85;;;29.70;;
63965;SDS011;50151;52.030;5.350;2023-04-23T00:46:06;47.00;;;27.65;;
63965;SDS011;50151;52.030;5.350;2023-04-23T00:48:34;53.67;;;28.25;;
63965;SDS011;50151;52.030;5.350;2023-04-23T00:51:02;48.03;;;27.95;;
63965;SDS011;50151;52.030;5.350;2023-04-23T00:53:30;46.22;;;27.52;;
63965;SDS011;50151;52.030;5.350;2023-04-23T00:55:59;49.35;;;27.80;;
63965;SDS011;50151;52.030;5.350;2023-04-23T00:58:29;48.78;;;28.05;;
63965;SDS011;50151;52.030;5.350;2023-04-23T01:00:56;50.85;;;29.27;;
63965;SDS011;50151;52.030;5.350;2023-04-23T01:03:23;50.47;;;29.38;;
63965;SDS011;50151;52.030;5.350;2023-04-23T01:05:52;55.70;;;30.10;;
63965;SDS011;50151;52.030;5.350;2023-04-23T01:08:18;53.45;;;29.92;;
63965;SDS011;50151;52.030;5.350;2023-04-23T01:10:48;49.08;;;29.17;;
63965;SDS011;50151;52.030;5.350;2023-04-23T01:13:15;52.47;;;29.38;;
63965;SDS011;50151;52.030;5.350;2023-04-23T01:15:43;51.13;;;28.92;;
63965;SDS011;50151;52.030;5.350;2023-04-23T01:18:10;50.97;;;30.10;;
63965;SDS011;50151;52.030;5.350;2023-04-23T01:20:38;51.95;;;30.42;;
63965;SDS011;50151;52.030;5.350;2023-04-23T01:23:04;55.17;;;30.85;;
63965;SDS011;50151;52.030;5.350;2023-04-23T01:25:31;52.25;;;30.27;;
63965;SDS011;50151;52.030;5.350;2023-04-23T01:27:59;56.53;;;32.42;;
63965;SDS011;50151;52.030;5.350;2023-04-23T01:30:26;57.05;;;31.10;;
63965;SDS011;50151;52.030;5.350;2023-04-23T01:32:53;54.55;;;31.40;;
63965;SDS011;50151;52.030;5.350;2023-04-23T01:35:21;55.25;;;31.05;;
63965;SDS011;50151;52.030;5.350;2023-04-23T01:37:49;54.63;;;31.23;;
63965;SDS011;50151;52.030;5.350;2023-04-23T01:40:17;54.90;;;30.20;;
63965;SDS011;50151;52.030;5.350;2023-04-23T01:42:45;54.92;;;31.17;;
63965;SDS011;50151;52.030;5.350;2023-04-23T01:45:13;54.88;;;30.48;;
63965;SDS011;50151;52.030;5.350;2023-04-23T01:47:40;56.75;;;32.40;;
63965;SDS011;50151;52.030;5.350;2023-04-23T01:50:07;60.58;;;30.90;;
63965;SDS011;50151;52.030;5.350;2023-04-23T01:52:35;55.38;;;31.02;;
63965;SDS011;50151;52.030;5.350;2023-04-23T01:55:01;57.25;;;31.70;;
63965;SDS011;50151;52.030;5.350;2023-04-23T01:57:28;58.05;;;32.03;;
63965;SDS011;50151;52.030;5.350;2023-04-23T02:00:00;57.42;;;30.77;;
63965;SDS011;50151;52.030;5.350;2023-04-23T02:02:36;54.08;;;30.45;;
63965;SDS011;50151;52.030;5.350;2023-04-23T02:05:09;55.75;;;31.58;;
63965;SDS011;50151;52.030;5.350;2023-04-23T02:07:40;54.60;;;31.15;;
63965;SDS011;50151;52.030;5.350;2023-04-23T02:10:07;52.70;;;29.40;;
63965;SDS011;50151;52.030;5.350;2023-04-23T02:12:37;53.38;;;30.02;;
63965;SDS011;50151;52.030;5.350;2023-04-23T02:15:05;53.15;;;30.70;;
63965;SDS011;50151;52.030;5.350;2023-04-23T02:17:36;61.17;;;31.98;;
63965;SDS011;50151;52.030;5.350;2023-04-23T02:20:06;54.60;;;30.15;;
63965;SDS011;50151;52.030;5.350;2023-04-23T02:22:35;55.95;;;31.20;;
63965;SDS011;50151;52.030;5.350;2023-04-23T02:25:06;61.00;;;31.13;;
63965;SDS011;50151;52.030;5.350;2023-04-23T02:27:33;56.67;;;29.88;;
63965;SDS011;50151;52.030;5.350;2023-04-23T02:30:01;54.17;;;29.88;;
63965;SDS011;50151;52.030;5.350;2023-04-23T02:32:28;54.75;;;29.98;;
63965;SDS011;50151;52.030;5.350;2023-04-23T02:34:56;58.58;;;31.88;;
63965;SDS011;50151;52.030;5.350;2023-04-23T02:37:24;57.92;;;31.77;;
63965;SDS011;50151;52.030;5.350;2023-04-23T02:39:51;52.50;;;29.27;;
63965;SDS011;50151;52.030;5.350;2023-04-23T02:42:18;56.95;;;29.17;;
63965;SDS011;50151;52.030;5.350;2023-04-23T02:44:45;53.67;;;29.63;;
63965;SDS011;50151;52.030;5.350;2023-04-23T02:47:11;54.20;;;28.10;;
63965;SDS011;50151;52.030;5.350;2023-04-23T02:49:41;56.22;;;30.00;;
63965;SDS011;50151;52.030;5.350;2023-04-23T02:52:08;52.33;;;29.23;;
63965;SDS011;50151;52.030;5.350;2023-04-23T02:54:34;52.15;;;29.58;;
63965;SDS011;50151;52.030;5.350;2023-04-23T02:57:02;54.55;;;28.73;;
63965;SDS011;50151;52.030;5.350;2023-04-23T02:59:29;55.15;;;29.77;;
63965;SDS011;50151;52.030;5.350;2023-04-23T03:01:56;50.20;;;27.73;;
63965;SDS011;50151;52.030;5.350;2023-04-23T03:04:23;49.25;;;27.83;;
63965;SDS011;50151;52.030;5.350;2023-04-23T03:06:50;51.08;;;29.15;;
63965;SDS011;50151;52.030;5.350;2023-04-23T03:09:16;51.58;;;28.10;;
63965;SDS011;50151;52.030;5.350;2023-04-23T03:11:43;50.83;;;28.55;;
63965;SDS011;50151;52.030;5.350;2023-04-23T03:14:10;47.88;;;26.60;;
63965;SDS011;50151;52.030;5.350;2023-04-23T03:16:37;49.42;;;26.75;;
63965;SDS011;50151;52.030;5.350;2023-04-23T03:19:04;48.10;;;27.90;;
63965;SDS011;50151;52.030;5.350;2023-04-23T03:21:30;49.17;;;26.88;;
63965;SDS011;50151;52.030;5.350;2023-04-23T03:23:57;49.38;;;26.25;;
63965;SDS011;50151;52.030;5.350;2023-04-23T03:26:24;48.22;;;25.75;;
63965;SDS011;50151;52.030;5.350;2023-04-23T03:28:50;47.50;;;24.75;;
63965;SDS011;50151;52.030;5.350;2023-04-23T03:31:17;42.50;;;23.92;;
63965;SDS011;50151;52.030;5.350;2023-04-23T03:33:44;41.33;;;23.50;;
63965;SDS011;50151;52.030;5.350;2023-04-23T03:36:11;44.88;;;24.10;;
63965;SDS011;50151;52.030;5.350;2023-04-23T03:38:37;39.40;;;23.70;;
63965;SDS011;50151;52.030;5.350;2023-04-23T03:41:04;38.55;;;23.05;;
63965;SDS011;50151;52.030;5.350;2023-04-23T03:43:31;35.65;;;21.73;;
63965;SDS011;50151;52.030;5.350;2023-04-23T03:45:58;38.03;;;22.85;;
63965;SDS011;50151;52.030;5.350;2023-04-23T03:48:24;39.33;;;22.58;;
63965;SDS011;50151;52.030;5.350;2023-04-23T03:50:51;36.58;;;23.20;;
63965;SDS011;50151;52.030;5.350;2023-04-23T03:53:18;39.60;;;22.50;;
63965;SDS011;50151;52.030;5.350;2023-04-23T03:55:44;40.25;;;22.27;;
63965;SDS011;50151;52.030;5.350;2023-04-23T03:58:11;38.58;;;22.65;;
63965;SDS011;50151;52.030;5.350;2023-04-23T04:00:37;36.78;;;21.33;;
63965;SDS011;50151;52.030;5.350;2023-04-23T04:03:04;32.47;;;21.02;;
63965;SDS011;50151;52.030;5.350;2023-04-23T04:05:31;35.70;;;20.75;;
63965;SDS011;50151;52.030;5.350;2023-04-23T04:07:58;36.42;;;20.83;;
63965;SDS011;50151;52.030;5.350;2023-04-23T04:10:24;35.30;;;21.25;;
63965;SDS011;50151;52.030;5.350;2023-04-23T04:12:51;39.58;;;22.17;;
63965;SDS011;50151;52.030;5.350;2023-04-23T04:15:18;34.45;;;22.00;;
63965;SDS011;50151;52.030;5.350;2023-04-23T04:17:46;37.83;;;21.75;;
63965;SDS011;50151;52.030;5.350;2023-04-23T04:20:12;37.28;;;21.30;;
63965;SDS011;50151;52.030;5.350;2023-04-23T04:22:39;30.08;;;19.08;;
63965;SDS011;50151;52.030;5.350;2023-04-23T04:25:06;32.22;;;20.02;;
63965;SDS011;50151;52.030;5.350;2023-04-23T04:27:33;34.83;;;20.45;;
63965;SDS011;50151;52.030;5.350;2023-04-23T04:30:00;32.65;;;19.85;;
63965;SDS011;50151;52.030;5.350;2023-04-23T04:32:27;30.83;;;18.73;;
63965;SDS011;50151;52.030;5.350;2023-04-23T04:34:54;31.75;;;18.98;;
63965;SDS011;50151;52.030;5.350;2023-04-23T04:37:20;32.65;;;20.10;;
63965;SDS011;50151;52.030;5.350;2023-04-23T04:39:47;35.55;;;19.98;;
63965;SDS011;50151;52.030;5.350;2023-04-23T04:42:14;29.42;;;18.75;;
63965;SDS011;50151;52.030;5.350;2023-04-23T04:44:41;28.27;;;18.13;;
63965;SDS011;50151;52.030;5.350;2023-04-23T04:47:08;31.77;;;19.15;;
63965;SDS011;50151;52.030;5.350;2023-04-23T04:49:36;30.67;;;18.75;;
63965;SDS011;50151;52.030;5.350;2023-04-23T04:52:03;28.20;;;18.13;;
63965;SDS011;50151;52.030;5.350;2023-04-23T04:54:30;30.35;;;18.23;;
63965;SDS011;50151;52.030;5.350;2023-04-23T04:56:56;30.75;;;17.73;;
63965;SDS011;50151;52.030;5.350;2023-04-23T04:59:23;28.88;;;18.05;;
63965;SDS011;50151;52.030;5.350;2023-04-23T05:01:50;31.63;;;18.30;;
63965;SDS011;50151;52.030;5.350;2023-04-23T05:04:16;27.75;;;17.92;;
63965;SDS011;50151;52.030;5.350;2023-04-23T05:06:43;27.05;;;17.35;;
63965;SDS011;50151;52.030;5.350;2023-04-23T05:09:10;27.58;;;17.75;;
63965;SDS011;50151;52.030;5.350;2023-04-23T05:11:37;26.30;;;17.63;;
63965;SDS011;50151;52.030;5.350;2023-04-23T05:14:04;25.58;;;16.23;;
63965;SDS011;50151;52.030;5.350;2023-04-23T05:16:31;26.17;;;17.65;;
63965;SDS011;50151;52.030;5.350;2023-04-23T05:18:58;25.25;;;16.98;;
63965;SDS011;50151;52.030;5.350;2023-04-23T05:21:25;26.80;;;16.90;;
63965;SDS011;50151;52.030;5.350;2023-04-23T05:23:53;26.00;;;16.92;;
63965;SDS011;50151;52.030;5.350;2023-04-23T05:26:20;28.27;;;17.08;;
63965;SDS011;50151;52.030;5.350;2023-04-23T05:28:46;30.05;;;17.02;;
63965;SDS011;50151;52.030;5.350;2023-04-23T05:31:13;30.48;;;18.15;;
63965;SDS011;50151;52.030;5.350;2023-04-23T05:33:40;25.42;;;17.50;;
63965;SDS011;50151;52.030;5.350;2023-04-23T05:36:16;28.15;;;16.42;;
63965;SDS011;50151;52.030;5.350;2023-04-23T05:38:43;30.73;;;17.02;;
63965;SDS011;50151;52.030;5.350;2023-04-23T05:41:10;25.73;;;16.80;;
63965;SDS011;50151;52.030;5.350;2023-04-23T05:43:36;23.75;;;16.67;;
63965;SDS011;50151;52.030;5.350;2023-04-23T05:46:03;24.75;;;16.98;;
63965;SDS011;50151;52.030;5.350;2023-04-23T05:48:32;25.95;;;16.42;;
63965;SDS011;50151;52.030;5.350;2023-04-23T05:50:59;27.15;;;17.17;;
63965;SDS011;50151;52.030;5.350;2023-04-23T05:53:26;24.35;;;16.33;;
63965;SDS011;50151;52.030;5.350;2023-04-23T05:55:53;25.83;;;16.17;;
63965;SDS011;50151;52.030;5.350;2023-04-23T05:58:20;23.48;;;15.25;;
63965;SDS011;50151;52.030;5.350;2023-04-23T06:00:46;22.63;;;15.43;;
63965;SDS011;50151;52.030;5.350;2023-04-23T06:03:13;26.08;;;16.77;;
63965;SDS011;50151;52.030;5.350;2023-04-23T06:05:40;27.25;;;16.30;;
63965;SDS011;50151;52.030;5.350;2023-04-23T06:08:08;22.52;;;15.30;;
63965;SDS011;50151;52.030;5.350;2023-04-23T06:10:35;23.98;;;15.45;;
63965;SDS011;50151;52.030;5.350;2023-04-23T06:13:01;22.70;;;15.18;;
63965;SDS011;50151;52.030;5.350;2023-04-23T06:15:28;22.92;;;15.23;;
63965;SDS011;50151;52.030;5.350;2023-04-23T06:17:55;24.55;;;14.70;;
63965;SDS011;50151;52.030;5.350;2023-04-23T06:20:21;23.52;;;14.45;;
63965;SDS011;50151;52.030;5.350;2023-04-23T06:22:48;21.13;;;14.75;;
63965;SDS011;50151;52.030;5.350;2023-04-23T06:25:15;20.85;;;14.38;;
63965;SDS011;50151;52.030;5.350;2023-04-23T06:27:41;20.52;;;14.23;;
63965;SDS011;50151;52.030;5.350;2023-04-23T06:30:08;21.40;;;14.60;;
63965;SDS011;50151;52.030;5.350;2023-04-23T06:32:35;19.60;;;13.98;;
63965;SDS011;50151;52.030;5.350;2023-04-23T06:35:02;18.23;;;13.23;;
63965;SDS011;50151;52.030;5.350;2023-04-23T06:37:29;18.30;;;12.75;;
63965;SDS011;50151;52.030;5.350;2023-04-23T06:39:57;22.33;;;13.77;;
63965;SDS011;50151;52.030;5.350;2023-04-23T06:42:24;20.15;;;13.10;;
63965;SDS011;50151;52.030;5.350;2023-04-23T06:44:51;16.80;;;12.27;;
63965;SDS011;50151;52.030;5.350;2023-04-23T06:47:18;19.35;;;12.77;;
63965;SDS011;50151;52.030;5.350;2023-04-23T06:49:44;16.35;;;11.30;;
63965;SDS011;50151;52.030;5.350;2023-04-23T06:52:11;16.08;;;11.85;;
63965;SDS011;50151;52.030;5.350;2023-04-23T06:54:38;16.02;;;11.30;;
63965;SDS011;50151;52.030;5.350;2023-04-23T06:57:05;17.40;;;10.93;;
63965;SDS011;50151;52.030;5.350;2023-04-23T06:59:32;19.45;;;11.55;;
63965;SDS011;50151;52.030;5.350;2023-04-23T07:01:58;13.63;;;9.30;;
63965;SDS011;50151;52.030;5.350;2023-04-23T07:04:25;14.00;;;9.70;;
63965;SDS011;50151;52.030;5.350;2023-04-23T07:06:52;13.05;;;9.57;;
63965;SDS011;50151;52.030;5.350;2023-04-23T07:09:19;9.50;;;6.60;;
63965;SDS011;50151;52.030;5.350;2023-04-23T07:11:46;14.13;;;9.55;;
63965;SDS011;50151;52.030;5.350;2023-04-23T07:14:12;13.20;;;9.68;;
63965;SDS011;50151;52.030;5.350;2023-04-23T07:16:39;13.55;;;9.48;;
63965;SDS011;50151;52.030;5.350;2023-04-23T07:19:06;13.63;;;9.43;;
63965;SDS011;50151;52.030;5.350;2023-04-23T07:21:33;13.98;;;8.38;;
63965;SDS011;50151;52.030;5.350;2023-04-23T07:24:00;14.02;;;8.27;;
63965;SDS011;50151;52.030;5.350;2023-04-23T07:26:33;15.07;;;9.15;;
63965;SDS011;50151;52.030;5.350;2023-04-23T07:29:00;14.88;;;8.90;;
63965;SDS011;50151;52.030;5.350;2023-04-23T07:31:27;11.90;;;8.70;;
63965;SDS011;50151;52.030;5.350;2023-04-23T07:33:54;15.20;;;8.45;;
63965;SDS011;50151;52.030;5.350;2023-04-23T07:36:21;11.60;;;7.35;;
63965;SDS011;50151;52.030;5.350;2023-04-23T07:38:48;12.27;;;7.47;;
63965;SDS011;50151;52.030;5.350;2023-04-23T07:41:16;12.38;;;7.72;;
63965;SDS011;50151;52.030;5.350;2023-04-23T07:43:42;13.38;;;7.68;;
63965;SDS011;50151;52.030;5.350;2023-04-23T07:46:09;12.13;;;7.70;;
63965;SDS011;50151;52.030;5.350;2023-04-23T07:48:36;10.98;;;7.03;;
63965;SDS011;50151;52.030;5.350;2023-04-23T07:51:03;11.63;;;7.57;;
63965;SDS011;50151;52.030;5.350;2023-04-23T07:53:31;17.58;;;7.75;;
63965;SDS011;50151;52.030;5.350;2023-04-23T07:55:58;11.27;;;6.95;;
63965;SDS011;50151;52.030;5.350;2023-04-23T07:58:25;9.55;;;6.50;;
63965;SDS011;50151;52.030;5.350;2023-04-23T08:00:52;9.93;;;6.28;;
63965;SDS011;50151;52.030;5.350;2023-04-23T08:03:19;11.77;;;6.55;;
63965;SDS011;50151;52.030;5.350;2023-04-23T08:05:46;10.23;;;5.03;;
63965;SDS011;50151;52.030;5.350;2023-04-23T08:08:13;11.15;;;6.07;;
63965;SDS011;50151;52.030;5.350;2023-04-23T08:10:40;14.57;;;6.68;;
63965;SDS011;50151;52.030;5.350;2023-04-23T08:13:07;12.95;;;6.07;;
63965;SDS011;50151;52.030;5.350;2023-04-23T08:15:33;13.43;;;6.15;;
63965;SDS011;50151;52.030;5.350;2023-04-23T08:18:01;16.23;;;6.22;;
63965;SDS011;50151;52.030;5.350;2023-04-23T08:20:29;6.63;;;4.20;;
63965;SDS011;50151;52.030;5.350;2023-04-23T08:22:57;10.98;;;5.88;;
63965;SDS011;50151;52.030;5.350;2023-04-23T08:25:24;7.90;;;4.93;;
63965;SDS011;50151;52.030;5.350;2023-04-23T08:27:50;11.63;;;6.05;;
63965;SDS011;50151;52.030;5.350;2023-04-23T08:30:17;10.43;;;5.35;;
63965;SDS011;50151;52.030;5.350;2023-04-23T08:32:45;10.52;;;5.60;;
63965;SDS011;50151;52.030;5.350;2023-04-23T08:35:17;16.23;;;6.00;;
63965;SDS011;50151;52.030;5.350;2023-04-23T08:37:44;6.55;;;3.85;;
63965;SDS011;50151;52.030;5.350;2023-04-23T08:40:11;9.27;;;5.25;;
63965;SDS011;50151;52.030;5.350;2023-04-23T08:42:56;14.00;;;5.57;;
63965;SDS011;50151;52.030;5.350;2023-04-23T08:45:23;8.60;;;4.80;;
63965;SDS011;50151;52.030;5.350;2023-04-23T08:47:51;10.02;;;5.05;;
63965;SDS011;50151;52.030;5.350;2023-04-23T08:50:27;14.07;;;5.28;;
63965;SDS011;50151;52.030;5.350;2023-04-23T08:52:55;12.80;;;5.05;;
63965;SDS011;50151;52.030;5.350;2023-04-23T08:55:23;10.48;;;5.45;;
63965;SDS011;50151;52.030;5.350;2023-04-23T08:57:51;9.95;;;5.43;;
63965;SDS011;50151;52.030;5.350;2023-04-23T09:00:18;13.23;;;5.20;;
63965;SDS011;50151;52.030;5.350;2023-04-23T09:02:48;13.32;;;5.43;;
63965;SDS011;50151;52.030;5.350;2023-04-23T09:05:16;12.30;;;4.90;;
63965;SDS011;50151;52.030;5.350;2023-04-23T09:07:43;13.23;;;4.70;;
63965;SDS011;50151;52.030;5.350;2023-04-23T09:10:10;13.82;;;5.13;;
63965;SDS011;50151;52.030;5.350;2023-04-23T09:12:43;8.98;;;4.63;;
63965;SDS011;50151;52.030;5.350;2023-04-23T09:15:10;13.55;;;5.13;;
63965;SDS011;50151;52.030;5.350;2023-04-23T09:17:38;15.05;;;4.43;;
63965;SDS011;50151;52.030;5.350;2023-04-23T09:20:06;11.13;;;4.10;;
63965;SDS011;50151;52.030;5.350;2023-04-23T09:22:37;16.02;;;3.95;;
63965;SDS011;50151;52.030;5.350;2023-04-23T09:25:10;7.60;;;3.35;;
63965;SDS011;50151;52.030;5.350;2023-04-23T09:27:38;9.05;;;3.78;;
63965;SDS011;50151;52.030;5.350;2023-04-23T09:30:07;10.77;;;3.90;;
63965;SDS011;50151;52.030;5.350;2023-04-23T09:32:39;8.38;;;3.30;;
63965;SDS011;50151;52.030;5.350;2023-04-23T09:35:22;5.20;;;2.50;;
63965;SDS011;50151;52.030;5.350;2023-04-23T09:37:53;11.60;;;3.72;;
63965;SDS011;50151;52.030;5.350;2023-04-23T09:40:21;11.35;;;3.42;;
63965;SDS011;50151;52.030;5.350;2023-04-23T09:42:50;10.48;;;3.13;;
63965;SDS011;50151;52.030;5.350;2023-04-23T09:45:21;10.52;;;3.35;;
63965;SDS011;50151;52.030;5.350;2023-04-23T09:47:51;11.57;;;2.97;;
63965;SDS011;50151;52.030;5.350;2023-04-23T09:50:30;11.25;;;3.00;;
63965;SDS011;50151;52.030;5.350;2023-04-23T09:52:57;6.38;;;2.85;;
63965;SDS011;50151;52.030;5.350;2023-04-23T09:55:31;9.57;;;3.30;;
63965;SDS011;50151;52.030;5.350;2023-04-23T09:58:04;12.88;;;2.90;;
63965;SDS011;50151;52.030;5.350;2023-04-23T10:00:35;11.93;;;3.03;;
63965;SDS011;50151;52.030;5.350;2023-04-23T10:03:05;9.20;;;2.95;;
63965;SDS011;50151;52.030;5.350;2023-04-23T10:05:40;9.30;;;3.20;;
63965;SDS011;50151;52.030;5.350;2023-04-23T10:08:11;10.77;;;2.80;;
63965;SDS011;50151;52.030;5.350;2023-04-23T10:10:41;9.05;;;2.20;;
63965;SDS011;50151;52.030;5.350;2023-04-23T10:13:28;13.02;;;3.20;;
63965;SDS011;50151;52.030;5.350;2023-04-23T10:15:54;7.75;;;2.13;;
63965;SDS011;50151;52.030;5.350;2023-04-23T10:18:35;7.80;;;2.00;;
63965;SDS011;50151;52.030;5.350;2023-04-23T10:21:03;6.35;;;2.22;;
63965;SDS011;50151;52.030;5.350;2023-04-23T10:23:31;7.80;;;2.47;;
63965;SDS011;50151;52.030;5.350;2023-04-23T10:26:03;12.02;;;2.70;;
63965;SDS011;50151;52.030;5.350;2023-04-23T10:28:32;6.68;;;1.58;;
63965;SDS011;50151;52.030;5.350;2023-04-23T10:31:00;6.03;;;1.90;;
63965;SDS011;50151;52.030;5.350;2023-04-23T10:33:29;4.57;;;1.40;;
63965;SDS011;50151;52.030;5.350;2023-04-23T10:36:11;8.05;;;2.10;;
63965;SDS011;50151;52.030;5.350;2023-04-23T10:38:39;7.05;;;2.20;;
63965;SDS011;50151;52.030;5.350;2023-04-23T10:41:23;11.90;;;2.38;;
63965;SDS011;50151;52.030;5.350;2023-04-23T10:43:54;10.60;;;1.90;;
63965;SDS011;50151;52.030;5.350;2023-04-23T10:46:28;7.18;;;1.70;;
63965;SDS011;50151;52.030;5.350;2023-04-23T10:49:05;12.32;;;2.10;;
63965;SDS011;50151;52.030;5.350;2023-04-23T10:51:35;8.60;;;1.90;;
63965;SDS011;50151;52.030;5.350;2023-04-23T10:54:06;7.07;;;1.60;;
63965;SDS011;50151;52.030;5.350;2023-04-23T10:56:36;4.53;;;1.60;;
63965;SDS011;50151;52.030;5.350;2023-04-23T10:59:07;8.77;;;2.13;;
63965;SDS011;50151;52.030;5.350;2023-04-23T11:01:52;11.00;;;1.80;;
63965;SDS011;50151;52.030;5.350;2023-04-23T11:04:28;5.80;;;2.03;;
63965;SDS011;50151;52.030;5.350;2023-04-23T11:06:56;7.80;;;1.48;;
63965;SDS011;50151;52.030;5.350;2023-04-23T11:12:02;6.55;;;1.58;;
63965;SDS011;50151;52.030;5.350;2023-04-23T11:14:40;5.97;;;2.10;;
63965;SDS011;50151;52.030;5.350;2023-04-23T11:19:38;9.82;;;2.00;;
63965;SDS011;50151;52.030;5.350;2023-04-23T11:22:15;9.07;;;2.08;;
63965;SDS011;50151;52.030;5.350;2023-04-23T11:24:44;5.95;;;1.52;;
63965;SDS011;50151;52.030;5.350;2023-04-23T11:27:16;2.83;;;1.02;;
63965;SDS011;50151;52.030;5.350;2023-04-23T11:29:44;6.22;;;1.55;;
63965;SDS011;50151;52.030;5.350;2023-04-23T11:32:15;8.23;;;1.80;;
63965;SDS011;50151;52.030;5.350;2023-04-23T11:34:43;5.97;;;1.40;;
63965;SDS011;50151;52.030;5.350;2023-04-23T11:37:14;5.18;;;1.70;;
63965;SDS011;50151;52.030;5.350;2023-04-23T11:39:43;10.35;;;3.72;;
63965;SDS011;50151;52.030;5.350;2023-04-23T11:42:14;12.23;;;3.75;;
63965;SDS011;50151;52.030;5.350;2023-04-23T11:44:43;9.73;;;3.25;;
63965;SDS011;50151;52.030;5.350;2023-04-23T11:47:11;9.55;;;3.13;;
63965;SDS011;50151;52.030;5.350;2023-04-23T11:49:39;9.38;;;2.30;;
63965;SDS011;50151;52.030;5.350;2023-04-23T11:52:11;6.15;;;1.52;;
63965;SDS011;50151;52.030;5.350;2023-04-23T11:54:40;7.57;;;2.20;;
63965;SDS011;50151;52.030;5.350;2023-04-23T11:57:07;4.25;;;1.20;;
63965;SDS011;50151;52.030;5.350;2023-04-23T11:59:35;6.03;;;1.60;;
63965;SDS011;50151;52.030;5.350;2023-04-23T12:02:01;5.25;;;1.33;;
63965;SDS011;50151;52.030;5.350;2023-04-23T12:04:28;6.28;;;1.40;;
63965;SDS011;50151;52.030;5.350;2023-04-23T12:06:57;6.00;;;1.20;;
63965;SDS011;50151;52.030;5.350;2023-04-23T12:09:26;4.53;;;1.60;;
63965;SDS011;50151;52.030;5.350;2023-04-23T12:11:55;4.78;;;1.60;;
63965;SDS011;50151;52.030;5.350;2023-04-23T12:14:30;7.75;;;1.58;;
63965;SDS011;50151;52.030;5.350;2023-04-23T12:17:01;6.18;;;1.50;;
63965;SDS011;50151;52.030;5.350;2023-04-23T12:19:35;5.50;;;1.35;;
63965;SDS011;50151;52.030;5.350;2023-04-23T12:22:02;3.58;;;0.90;;
63965;SDS011;50151;52.030;5.350;2023-04-23T12:24:30;3.40;;;1.10;;
63965;SDS011;50151;52.030;5.350;2023-04-23T12:27:12;6.40;;;1.23;;
63965;SDS011;50151;52.030;5.350;2023-04-23T12:29:41;6.78;;;1.60;;
63965;SDS011;50151;52.030;5.350;2023-04-23T12:32:09;8.23;;;1.42;;
63965;SDS011;50151;52.030;5.350;2023-04-23T12:34:36;6.05;;;1.20;;
63965;SDS011;50151;52.030;5.350;2023-04-23T12:37:18;5.97;;;1.30;;
63965;SDS011;50151;52.030;5.350;2023-04-23T12:39:55;7.18;;;1.30;;
63965;SDS011;50151;52.030;5.350;2023-04-23T12:42:24;3.67;;;1.30;;
63965;SDS011;50151;52.030;5.350;2023-04-23T12:44:51;4.82;;;1.40;;
63965;SDS011;50151;52.030;5.350;2023-04-23T12:47:21;8.68;;;1.65;;
63965;SDS011;50151;52.030;5.350;2023-04-23T12:49:48;8.80;;;1.35;;
63965;SDS011;50151;52.030;5.350;2023-04-23T12:52:19;7.82;;;1.48;;
63965;SDS011;50151;52.030;5.350;2023-04-23T12:54:45;5.97;;;1.58;;
63965;SDS011;50151;52.030;5.350;2023-04-23T12:57:16;6.03;;;1.33;;
63965;SDS011;50151;52.030;5.350;2023-04-23T12:59:48;2.17;;;1.13;;
63965;SDS011;50151;52.030;5.350;2023-04-23T13:02:15;5.30;;;1.45;;
63965;SDS011;50151;52.030;5.350;2023-04-23T13:04:42;8.05;;;1.58;;
63965;SDS011;50151;52.030;5.350;2023-04-23T13:07:08;4.75;;;1.25;;
63965;SDS011;50151;52.030;5.350;2023-04-23T13:09:35;5.05;;;1.30;;
63965;SDS011;50151;52.030;5.350;2023-04-23T13:12:02;7.95;;;1.42;;
63965;SDS011;50151;52.030;5.350;2023-04-23T13:14:28;6.00;;;1.25;;
63965;SDS011;50151;52.030;5.350;2023-04-23T13:16:57;5.65;;;1.27;;
63965;SDS011;50151;52.030;5.350;2023-04-23T13:19:24;5.38;;;1.30;;
63965;SDS011;50151;52.030;5.350;2023-04-23T13:21:51;3.45;;;1.00;;
63965;SDS011;50151;52.030;5.350;2023-04-23T13:24:17;5.93;;;1.52;;
63965;SDS011;50151;52.030;5.350;2023-04-23T13:26:44;4.75;;;1.10;;
63965;SDS011;50151;52.030;5.350;2023-04-23T13:29:11;4.35;;;1.23;;
63965;SDS011;50151;52.030;5.350;2023-04-23T13:31:37;4.90;;;1.13;;
63965;SDS011;50151;52.030;5.350;2023-04-23T13:34:04;3.72;;;1.08;;
63965;SDS011;50151;52.030;5.350;2023-04-23T13:36:30;2.35;;;0.95;;
63965;SDS011;50151;52.030;5.350;2023-04-23T13:38:57;5.95;;;1.13;;
63965;SDS011;50151;52.030;5.350;2023-04-23T13:41:24;4.32;;;1.30;;
63965;SDS011;50151;52.030;5.350;2023-04-23T13:43:52;4.47;;;1.17;;
63965;SDS011;50151;52.030;5.350;2023-04-23T13:46:19;7.50;;;1.30;;
63965;SDS011;50151;52.030;5.350;2023-04-23T13:48:45;5.03;;;1.80;;
63965;SDS011;50151;52.030;5.350;2023-04-23T13:51:12;4.72;;;0.80;;
63965;SDS011;50151;52.030;5.350;2023-04-23T13:53:59;5.53;;;1.15;;
63965;SDS011;50151;52.030;5.350;2023-04-23T13:56:26;4.95;;;1.17;;
63965;SDS011;50151;52.030;5.350;2023-04-23T13:58:53;5.03;;;1.30;;
63965;SDS011;50151;52.030;5.350;2023-04-23T14:01:30;3.60;;;1.13;;
63965;SDS011;50151;52.030;5.350;2023-04-23T14:03:56;2.88;;;0.90;;
63965;SDS011;50151;52.030;5.350;2023-04-23T14:06:23;4.88;;;1.05;;
63965;SDS011;50151;52.030;5.350;2023-04-23T14:08:50;6.82;;;1.40;;
63965;SDS011;50151;52.030;5.350;2023-04-23T14:11:17;3.05;;;0.88;;
63965;SDS011;50151;52.030;5.350;2023-04-23T14:13:44;3.63;;;1.10;;
63965;SDS011;50151;52.030;5.350;2023-04-23T14:16:12;4.43;;;0.88;;
63965;SDS011;50151;52.030;5.350;2023-04-23T14:18:39;4.82;;;1.38;;
63965;SDS011;50151;52.030;5.350;2023-04-23T14:21:05;3.95;;;0.85;;
63965;SDS011;50151;52.030;5.350;2023-04-23T14:23:42;5.20;;;1.30;;
63965;SDS011;50151;52.030;5.350;2023-04-23T14:26:21;3.83;;;0.90;;
63965;SDS011;50151;52.030;5.350;2023-04-23T14:29:29;5.18;;;1.00;;
63965;SDS011;50151;52.030;5.350;2023-04-23T14:32:01;4.88;;;0.98;;
63965;SDS011;50151;52.030;5.350;2023-04-23T14:34:28;4.43;;;1.08;;
63965;SDS011;50151;52.030;5.350;2023-04-23T14:36:54;5.97;;;1.05;;
63965;SDS011;50151;52.030;5.350;2023-04-23T14:39:21;4.40;;;1.00;;
63965;SDS011;50151;52.030;5.350;2023-04-23T14:41:49;7.47;;;1.25;;
63965;SDS011;50151;52.030;5.350;2023-04-23T14:44:16;4.07;;;0.95;;
63965;SDS011;50151;52.030;5.350;2023-04-23T14:46:43;6.47;;;1.00;;